sensor_id;sensor_type;location;lat;lon;timestamp;P1;durP1;ratioP1;P2;durP2;ratioP2
18580;SDS011;9420;50.876;7.012;2022-08-19T00:01:21;1.10;;;1.10;;
18580;SDS011;9420;50.876;7.012;2022-08-19T00:03:49;0.70;;;0.70;;
18580;SDS011;9420;50.876;7.012;2022-08-19T00:06:17;1.90;;;0.80;;
18580;SDS011;9420;50.876;7.012;2022-08-19T00:08:45;1.40;;;1.30;;
18580;SDS011;9420;50.876;7.012;2022-08-19T00:11:13;4.13;;;1.13;;
18580;SDS011;9420;50.876;7.012;2022-08-19T00:13:40;1.43;;;1.33;;
18580;SDS011;9420;50.876;7.012;2022-08-19T00:16:07;0.87;;;0.87;;
18580;SDS011;9420;50.876;7.012;2022-08-19T00:18:34;25.47;;;2.37;;
18580;SDS011;9420;50.876;7.012;2022-08-19T00:21:01;0.50;;;0.50;;
18580;SDS011;9420;50.876;7.012;2022-08-19T00:23:33;1.20;;;1.10;;
18580;SDS011;9420;50.876;7.012;2022-08-19T00:26:03;1.13;;;1.07;;
18580;SDS011;9420;50.876;7.012;2022-08-19T00:28:30;0.10;;;0.10;;
18580;SDS011;9420;50.876;7.012;2022-08-19T00:31:01;0.87;;;0.67;;
18580;SDS011;9420;50.876;7.012;2022-08-19T00:33:29;0.67;;;0.67;;
18580;SDS011;9420;50.876;7.012;2022-08-19T00:35:58;0.43;;;0.43;;
18580;SDS011;9420;50.876;7.012;2022-08-19T00:38:25;1.00;;;0.93;;
18580;SDS011;9420;50.876;7.012;2022-08-19T00:40:53;0.40;;;0.33;;
18580;SDS011;9420;50.876;7.012;2022-08-19T00:43:22;1.07;;;1.07;;
18580;SDS011;9420;50.876;7.012;2022-08-19T00:45:53;1.07;;;0.93;;
18580;SDS011;9420;50.876;7.012;2022-08-19T00:48:21;0.87;;;0.87;;
18580;SDS011;9420;50.876;7.012;2022-08-19T00:50:49;1.27;;;1.27;;
18580;SDS011;9420;50.876;7.012;2022-08-19T00:53:22;0.63;;;0.63;;
18580;SDS011;9420;50.876;7.012;2022-08-19T00:55:53;1.17;;;0.93;;
18580;SDS011;9420;50.876;7.012;2022-08-19T00:58:27;0.50;;;0.50;;
18580;SDS011;9420;50.876;7.012;2022-08-19T01:00:59;0.73;;;0.73;;
18580;SDS011;9420;50.876;7.012;2022-08-19T01:03:26;0.87;;;0.87;;
18580;SDS011;9420;50.876;7.012;2022-08-19T01:05:54;0.43;;;0.43;;
18580;SDS011;9420;50.876;7.012;2022-08-19T01:08:22;0.37;;;0.33;;
18580;SDS011;9420;50.876;7.012;2022-08-19T01:10:51;0.90;;;0.47;;
18580;SDS011;9420;50.876;7.012;2022-08-19T01:13:22;0.87;;;0.80;;
18580;SDS011;9420;50.876;7.012;2022-08-19T01:15:56;0.70;;;0.43;;
18580;SDS011;9420;50.876;7.012;2022-08-19T01:18:29;1.53;;;1.43;;
18580;SDS011;9420;50.876;7.012;2022-08-19T01:21:02;0.53;;;0.53;;
18580;SDS011;9420;50.876;7.012;2022-08-19T01:23:37;4.63;;;1.20;;
18580;SDS011;9420;50.876;7.012;2022-08-19T01:26:11;1.03;;;0.93;;
18580;SDS011;9420;50.876;7.012;2022-08-19T01:28:41;1.63;;;1.53;;
18580;SDS011;9420;50.876;7.012;2022-08-19T01:31:12;1.57;;;1.47;;
18580;SDS011;9420;50.876;7.012;2022-08-19T01:33:43;1.07;;;1.00;;
18580;SDS011;9420;50.876;7.012;2022-08-19T01:36:13;1.17;;;1.07;;
18580;SDS011;9420;50.876;7.012;2022-08-19T01:38:51;6.53;;;0.50;;
18580;SDS011;9420;50.876;7.012;2022-08-19T01:41:19;0.30;;;0.30;;
18580;SDS011;9420;50.876;7.012;2022-08-19T01:43:48;0.87;;;0.67;;
18580;SDS011;9420;50.876;7.012;2022-08-19T01:46:16;1.10;;;1.07;;
18580;SDS011;9420;50.876;7.012;2022-08-19T01:48:43;0.57;;;0.50;;
18580;SDS011;9420;50.876;7.012;2022-08-19T01:51:11;1.00;;;0.97;;
18580;SDS011;9420;50.876;7.012;2022-08-19T01:53:39;1.13;;;1.13;;
18580;SDS011;9420;50.876;7.012;2022-08-19T01:56:08;4.83;;;0.77;;
18580;SDS011;9420;50.876;7.012;2022-08-19T01:58:37;1.53;;;1.43;;
18580;SDS011;9420;50.876;7.012;2022-08-19T02:01:16;1.33;;;1.23;;
18580;SDS011;9420;50.876;7.012;2022-08-19T02:03:45;3.53;;;2.10;;
18580;SDS011;9420;50.876;7.012;2022-08-19T02:06:12;4.03;;;1.67;;
18580;SDS011;9420;50.876;7.012;2022-08-19T02:08:42;3.30;;;1.10;;
18580;SDS011;9420;50.876;7.012;2022-08-19T02:11:18;0.90;;;0.77;;
18580;SDS011;9420;50.876;7.012;2022-08-19T02:13:47;1.93;;;1.23;;
18580;SDS011;9420;50.876;7.012;2022-08-19T02:16:15;5.00;;;1.67;;
18580;SDS011;9420;50.876;7.012;2022-08-19T02:18:43;1.43;;;1.33;;
18580;SDS011;9420;50.876;7.012;2022-08-19T02:21:10;1.90;;;1.37;;
18580;SDS011;9420;50.876;7.012;2022-08-19T02:23:38;2.37;;;1.83;;
18580;SDS011;9420;50.876;7.012;2022-08-19T02:26:09;0.50;;;0.50;;
18580;SDS011;9420;50.876;7.012;2022-08-19T02:28:40;0.50;;;0.50;;
18580;SDS011;9420;50.876;7.012;2022-08-19T02:31:08;1.37;;;1.03;;
18580;SDS011;9420;50.876;7.012;2022-08-19T02:33:36;1.60;;;1.40;;
18580;SDS011;9420;50.876;7.012;2022-08-19T02:36:04;0.93;;;0.83;;
18580;SDS011;9420;50.876;7.012;2022-08-19T02:38:33;1.03;;;1.03;;
18580;SDS011;9420;50.876;7.012;2022-08-19T02:41:03;0.73;;;0.73;;
18580;SDS011;9420;50.876;7.012;2022-08-19T02:43:35;1.07;;;0.77;;
18580;SDS011;9420;50.876;7.012;2022-08-19T02:46:10;1.20;;;1.10;;
18580;SDS011;9420;50.876;7.012;2022-08-19T02:48:42;1.53;;;1.43;;
18580;SDS011;9420;50.876;7.012;2022-08-19T02:51:15;2.43;;;1.73;;
18580;SDS011;9420;50.876;7.012;2022-08-19T02:53:44;5.00;;;1.17;;
18580;SDS011;9420;50.876;7.012;2022-08-19T02:56:11;2.63;;;2.43;;
18580;SDS011;9420;50.876;7.012;2022-08-19T02:58:40;6.93;;;3.17;;
18580;SDS011;9420;50.876;7.012;2022-08-19T03:01:09;2.50;;;0.87;;
18580;SDS011;9420;50.876;7.012;2022-08-19T03:03:37;3.07;;;1.63;;
18580;SDS011;9420;50.876;7.012;2022-08-19T03:06:06;3.03;;;2.03;;
18580;SDS011;9420;50.876;7.012;2022-08-19T03:08:36;2.30;;;2.07;;
18580;SDS011;9420;50.876;7.012;2022-08-19T03:11:06;0.83;;;0.83;;
18580;SDS011;9420;50.876;7.012;2022-08-19T03:13:41;1.27;;;1.23;;
18580;SDS011;9420;50.876;7.012;2022-08-19T03:16:09;2.43;;;2.23;;
18580;SDS011;9420;50.876;7.012;2022-08-19T03:18:37;2.83;;;2.10;;
18580;SDS011;9420;50.876;7.012;2022-08-19T03:21:04;1.40;;;1.30;;
18580;SDS011;9420;50.876;7.012;2022-08-19T03:23:32;1.87;;;1.70;;
18580;SDS011;9420;50.876;7.012;2022-08-19T03:26:02;0.67;;;0.67;;
18580;SDS011;9420;50.876;7.012;2022-08-19T03:28:31;0.53;;;0.53;;
18580;SDS011;9420;50.876;7.012;2022-08-19T03:31:01;1.30;;;0.73;;
18580;SDS011;9420;50.876;7.012;2022-08-19T03:33:34;2.43;;;1.20;;
18580;SDS011;9420;50.876;7.012;2022-08-19T03:36:06;1.40;;;1.30;;
18580;SDS011;9420;50.876;7.012;2022-08-19T03:38:38;0.73;;;0.70;;
18580;SDS011;9420;50.876;7.012;2022-08-19T03:41:09;1.17;;;1.00;;
18580;SDS011;9420;50.876;7.012;2022-08-19T03:43:39;2.67;;;2.47;;
18580;SDS011;9420;50.876;7.012;2022-08-19T03:46:09;1.70;;;1.60;;
18580;SDS011;9420;50.876;7.012;2022-08-19T03:48:39;1.67;;;1.47;;
18580;SDS011;9420;50.876;7.012;2022-08-19T03:51:14;1.77;;;1.33;;
18580;SDS011;9420;50.876;7.012;2022-08-19T03:53:44;2.27;;;2.10;;
18580;SDS011;9420;50.876;7.012;2022-08-19T03:56:11;1.50;;;1.40;;
18580;SDS011;9420;50.876;7.012;2022-08-19T03:58:40;1.47;;;1.33;;
18580;SDS011;9420;50.876;7.012;2022-08-19T04:01:12;2.00;;;1.90;;
18580;SDS011;9420;50.876;7.012;2022-08-19T04:03:43;4.30;;;2.20;;
18580;SDS011;9420;50.876;7.012;2022-08-19T04:06:11;3.43;;;1.90;;
18580;SDS011;9420;50.876;7.012;2022-08-19T04:08:42;0.67;;;0.67;;
18580;SDS011;9420;50.876;7.012;2022-08-19T04:11:13;2.97;;;1.10;;
18580;SDS011;9420;50.876;7.012;2022-08-19T04:13:45;1.13;;;1.13;;
18580;SDS011;9420;50.876;7.012;2022-08-19T04:16:13;2.23;;;1.70;;
18580;SDS011;9420;50.876;7.012;2022-08-19T04:18:41;2.00;;;1.73;;
18580;SDS011;9420;50.876;7.012;2022-08-19T04:21:08;1.57;;;1.00;;
18580;SDS011;9420;50.876;7.012;2022-08-19T04:23:42;6.50;;;2.20;;
18580;SDS011;9420;50.876;7.012;2022-08-19T04:26:12;3.00;;;2.70;;
18580;SDS011;9420;50.876;7.012;2022-08-19T04:28:40;4.77;;;1.43;;
18580;SDS011;9420;50.876;7.012;2022-08-19T04:31:12;45.47;;;2.93;;
18580;SDS011;9420;50.876;7.012;2022-08-19T04:33:42;3.47;;;3.17;;
18580;SDS011;9420;50.876;7.012;2022-08-19T04:36:15;0.77;;;0.77;;
18580;SDS011;9420;50.876;7.012;2022-08-19T04:38:45;3.07;;;2.23;;
18580;SDS011;9420;50.876;7.012;2022-08-19T04:41:13;1.50;;;1.40;;
18580;SDS011;9420;50.876;7.012;2022-08-19T04:43:57;1.80;;;1.50;;
18580;SDS011;9420;50.876;7.012;2022-08-19T04:46:26;2.13;;;1.67;;
18580;SDS011;9420;50.876;7.012;2022-08-19T04:48:54;2.53;;;2.37;;
18580;SDS011;9420;50.876;7.012;2022-08-19T04:51:21;1.90;;;1.80;;
18580;SDS011;9420;50.876;7.012;2022-08-19T04:53:49;2.23;;;1.93;;
18580;SDS011;9420;50.876;7.012;2022-08-19T04:56:18;5.07;;;1.87;;
18580;SDS011;9420;50.876;7.012;2022-08-19T04:58:47;2.00;;;0.93;;
18580;SDS011;9420;50.876;7.012;2022-08-19T05:01:17;1.17;;;1.17;;
18580;SDS011;9420;50.876;7.012;2022-08-19T05:03:48;2.03;;;1.30;;
18580;SDS011;9420;50.876;7.012;2022-08-19T05:06:17;2.03;;;1.30;;
18580;SDS011;9420;50.876;7.012;2022-08-19T05:08:47;0.80;;;0.80;;
18580;SDS011;9420;50.876;7.012;2022-08-19T05:11:16;5.20;;;2.53;;
18580;SDS011;9420;50.876;7.012;2022-08-19T05:13:46;2.47;;;2.27;;
18580;SDS011;9420;50.876;7.012;2022-08-19T05:16:15;2.93;;;1.93;;
18580;SDS011;9420;50.876;7.012;2022-08-19T05:18:46;2.30;;;1.87;;
18580;SDS011;9420;50.876;7.012;2022-08-19T05:21:32;5.27;;;4.10;;
18580;SDS011;9420;50.876;7.012;2022-08-19T05:24:18;1.27;;;1.17;;
18580;SDS011;9420;50.876;7.012;2022-08-19T05:26:48;1.77;;;1.23;;
18580;SDS011;9420;50.876;7.012;2022-08-19T05:29:21;1.97;;;1.87;;
18580;SDS011;9420;50.876;7.012;2022-08-19T05:31:52;4.80;;;3.43;;
18580;SDS011;9420;50.876;7.012;2022-08-19T05:34:22;3.37;;;2.43;;
18580;SDS011;9420;50.876;7.012;2022-08-19T05:36:52;3.70;;;2.17;;
18580;SDS011;9420;50.876;7.012;2022-08-19T05:39:25;6.77;;;4.60;;
18580;SDS011;9420;50.876;7.012;2022-08-19T05:41:57;3.40;;;3.10;;
18580;SDS011;9420;50.876;7.012;2022-08-19T05:44:29;1.80;;;1.70;;
18580;SDS011;9420;50.876;7.012;2022-08-19T05:46:59;3.23;;;2.93;;
18580;SDS011;9420;50.876;7.012;2022-08-19T05:49:31;3.53;;;2.77;;
18580;SDS011;9420;50.876;7.012;2022-08-19T05:52:01;2.23;;;1.60;;
18580;SDS011;9420;50.876;7.012;2022-08-19T05:54:29;9.97;;;4.23;;
18580;SDS011;9420;50.876;7.012;2022-08-19T05:56:56;4.63;;;4.23;;
18580;SDS011;9420;50.876;7.012;2022-08-19T05:59:23;2.43;;;2.27;;
18580;SDS011;9420;50.876;7.012;2022-08-19T06:01:51;3.30;;;3.07;;
18580;SDS011;9420;50.876;7.012;2022-08-19T06:04:22;3.17;;;2.97;;
18580;SDS011;9420;50.876;7.012;2022-08-19T06:06:54;3.33;;;2.70;;
18580;SDS011;9420;50.876;7.012;2022-08-19T06:09:23;6.10;;;4.00;;
18580;SDS011;9420;50.876;7.012;2022-08-19T06:11:51;8.77;;;3.43;;
18580;SDS011;9420;50.876;7.012;2022-08-19T06:14:25;8.93;;;3.50;;
18580;SDS011;9420;50.876;7.012;2022-08-19T06:16:56;3.27;;;2.43;;
18580;SDS011;9420;50.876;7.012;2022-08-19T06:19:27;3.10;;;2.80;;
18580;SDS011;9420;50.876;7.012;2022-08-19T06:21:58;6.67;;;3.97;;
18580;SDS011;9420;50.876;7.012;2022-08-19T06:24:27;2.13;;;2.03;;
18580;SDS011;9420;50.876;7.012;2022-08-19T06:26:57;5.40;;;4.87;;
18580;SDS011;9420;50.876;7.012;2022-08-19T06:29:25;6.43;;;3.37;;
18580;SDS011;9420;50.876;7.012;2022-08-19T06:31:55;3.67;;;2.67;;
18580;SDS011;9420;50.876;7.012;2022-08-19T06:34:25;7.83;;;5.13;;
18580;SDS011;9420;50.876;7.012;2022-08-19T06:36:55;4.70;;;2.03;;
18580;SDS011;9420;50.876;7.012;2022-08-19T06:39:26;4.07;;;3.77;;
18580;SDS011;9420;50.876;7.012;2022-08-19T06:41:58;5.17;;;3.63;;
18580;SDS011;9420;50.876;7.012;2022-08-19T06:44:28;2.10;;;2.00;;
18580;SDS011;9420;50.876;7.012;2022-08-19T06:47:00;3.53;;;3.23;;
18580;SDS011;9420;50.876;7.012;2022-08-19T06:49:29;3.37;;;3.07;;
18580;SDS011;9420;50.876;7.012;2022-08-19T06:51:58;3.43;;;2.87;;
18580;SDS011;9420;50.876;7.012;2022-08-19T06:54:36;4.40;;;4.13;;
18580;SDS011;9420;50.876;7.012;2022-08-19T06:57:07;4.90;;;4.37;;
18580;SDS011;9420;50.876;7.012;2022-08-19T06:59:40;8.13;;;3.57;;
18580;SDS011;9420;50.876;7.012;2022-08-19T07:02:07;27.87;;;3.23;;
18580;SDS011;9420;50.876;7.012;2022-08-19T07:04:35;1.50;;;1.40;;
18580;SDS011;9420;50.876;7.012;2022-08-19T07:07:06;3.60;;;3.30;;
18580;SDS011;9420;50.876;7.012;2022-08-19T07:09:37;4.00;;;2.63;;
18580;SDS011;9420;50.876;7.012;2022-08-19T07:12:07;4.57;;;3.53;;
18580;SDS011;9420;50.876;7.012;2022-08-19T07:14:37;5.10;;;2.23;;
18580;SDS011;9420;50.876;7.012;2022-08-19T07:17:06;3.60;;;3.20;;
18580;SDS011;9420;50.876;7.012;2022-08-19T07:19:38;5.60;;;3.47;;
18580;SDS011;9420;50.876;7.012;2022-08-19T07:22:09;2.00;;;1.80;;
18580;SDS011;9420;50.876;7.012;2022-08-19T07:24:37;3.07;;;2.73;;
18580;SDS011;9420;50.876;7.012;2022-08-19T07:27:05;3.53;;;2.77;;
18580;SDS011;9420;50.876;7.012;2022-08-19T07:29:35;10.43;;;4.37;;
18580;SDS011;9420;50.876;7.012;2022-08-19T07:32:03;8.37;;;3.20;;
18580;SDS011;9420;50.876;7.012;2022-08-19T07:34:32;1.97;;;1.87;;
18580;SDS011;9420;50.876;7.012;2022-08-19T07:37:02;3.77;;;1.83;;
18580;SDS011;9420;50.876;7.012;2022-08-19T07:39:33;2.50;;;2.30;;
18580;SDS011;9420;50.876;7.012;2022-08-19T07:42:04;5.77;;;3.67;;
18580;SDS011;9420;50.876;7.012;2022-08-19T07:44:35;2.10;;;0.80;;
18580;SDS011;9420;50.876;7.012;2022-08-19T07:47:03;2.93;;;2.73;;
18580;SDS011;9420;50.876;7.012;2022-08-19T07:49:32;4.07;;;3.63;;
18580;SDS011;9420;50.876;7.012;2022-08-19T07:52:00;2.70;;;2.50;;
18580;SDS011;9420;50.876;7.012;2022-08-19T07:54:33;3.37;;;1.63;;
18580;SDS011;9420;50.876;7.012;2022-08-19T07:57:03;0.80;;;0.80;;
18580;SDS011;9420;50.876;7.012;2022-08-19T07:59:31;5.90;;;2.30;;
18580;SDS011;9420;50.876;7.012;2022-08-19T08:01:59;1.83;;;1.73;;
18580;SDS011;9420;50.876;7.012;2022-08-19T08:04:27;1.63;;;1.23;;
18580;SDS011;9420;50.876;7.012;2022-08-19T08:07:14;2.17;;;2.00;;
18580;SDS011;9420;50.876;7.012;2022-08-19T08:10:00;6.13;;;2.83;;
18580;SDS011;9420;50.876;7.012;2022-08-19T08:12:32;1.73;;;1.63;;
18580;SDS011;9420;50.876;7.012;2022-08-19T08:15:07;2.43;;;2.23;;
18580;SDS011;9420;50.876;7.012;2022-08-19T08:17:41;4.73;;;1.83;;
18580;SDS011;9420;50.876;7.012;2022-08-19T08:20:09;3.20;;;2.90;;
18580;SDS011;9420;50.876;7.012;2022-08-19T08:22:42;2.77;;;2.17;;
18580;SDS011;9420;50.876;7.012;2022-08-19T08:25:29;0.67;;;0.67;;
18580;SDS011;9420;50.876;7.012;2022-08-19T08:27:57;1.93;;;1.83;;
18580;SDS011;9420;50.876;7.012;2022-08-19T08:30:26;2.77;;;2.57;;
18580;SDS011;9420;50.876;7.012;2022-08-19T08:32:55;3.77;;;1.57;;
18580;SDS011;9420;50.876;7.012;2022-08-19T08:35:22;3.63;;;3.03;;
18580;SDS011;9420;50.876;7.012;2022-08-19T08:37:51;2.97;;;2.67;;
18580;SDS011;9420;50.876;7.012;2022-08-19T08:40:21;2.73;;;1.80;;
18580;SDS011;9420;50.876;7.012;2022-08-19T08:42:57;4.63;;;1.77;;
18580;SDS011;9420;50.876;7.012;2022-08-19T08:45:33;4.40;;;4.00;;
18580;SDS011;9420;50.876;7.012;2022-08-19T08:48:08;2.97;;;2.03;;
18580;SDS011;9420;50.876;7.012;2022-08-19T08:50:45;2.30;;;2.10;;
18580;SDS011;9420;50.876;7.012;2022-08-19T08:53:18;4.83;;;4.43;;
18580;SDS011;9420;50.876;7.012;2022-08-19T08:55:49;2.70;;;2.50;;
18580;SDS011;9420;50.876;7.012;2022-08-19T08:58:17;4.97;;;3.10;;
18580;SDS011;9420;50.876;7.012;2022-08-19T09:00:52;2.03;;;1.93;;
18580;SDS011;9420;50.876;7.012;2022-08-19T09:03:20;4.43;;;3.70;;
18580;SDS011;9420;50.876;7.012;2022-08-19T09:05:54;4.90;;;3.33;;
18580;SDS011;9420;50.876;7.012;2022-08-19T09:08:32;15.43;;;5.53;;
18580;SDS011;9420;50.876;7.012;2022-08-19T09:11:12;11.33;;;3.40;;
18580;SDS011;9420;50.876;7.012;2022-08-19T09:13:49;4.93;;;4.53;;
18580;SDS011;9420;50.876;7.012;2022-08-19T09:16:35;7.33;;;6.07;;
18580;SDS011;9420;50.876;7.012;2022-08-19T09:19:06;5.20;;;2.60;;
18580;SDS011;9420;50.876;7.012;2022-08-19T09:21:35;3.03;;;2.73;;
18580;SDS011;9420;50.876;7.012;2022-08-19T09:24:05;3.27;;;3.07;;
18580;SDS011;9420;50.876;7.012;2022-08-19T09:26:33;2.03;;;1.93;;
18580;SDS011;9420;50.876;7.012;2022-08-19T09:29:01;17.57;;;3.33;;
18580;SDS011;9420;50.876;7.012;2022-08-19T09:31:30;15.10;;;3.23;;
18580;SDS011;9420;50.876;7.012;2022-08-19T09:33:58;2.80;;;2.60;;
18580;SDS011;9420;50.876;7.012;2022-08-19T09:36:28;10.73;;;3.33;;
18580;SDS011;9420;50.876;7.012;2022-08-19T09:38:57;2.72;;;2.55;;
18580;SDS011;9420;50.876;7.012;2022-08-19T09:41:25;4.40;;;4.00;;
18580;SDS011;9420;50.876;7.012;2022-08-19T09:43:55;6.35;;;4.10;;
18580;SDS011;9420;50.876;7.012;2022-08-19T09:46:25;5.85;;;4.63;;
18580;SDS011;9420;50.876;7.012;2022-08-19T09:48:56;6.13;;;3.28;;
18580;SDS011;9420;50.876;7.012;2022-08-19T09:51:26;3.85;;;3.38;;
18580;SDS011;9420;50.876;7.012;2022-08-19T09:53:54;4.35;;;2.03;;
18580;SDS011;9420;50.876;7.012;2022-08-19T09:56:26;1.73;;;1.63;;
18580;SDS011;9420;50.876;7.012;2022-08-19T09:58:57;1.52;;;1.42;;
18580;SDS011;9420;50.876;7.012;2022-08-19T10:01:26;2.83;;;2.13;;
18580;SDS011;9420;50.876;7.012;2022-08-19T10:03:56;2.40;;;2.17;;
18580;SDS011;9420;50.876;7.012;2022-08-19T10:06:25;2.90;;;1.65;;
18580;SDS011;9420;50.876;7.012;2022-08-19T10:08:58;4.60;;;2.85;;
18580;SDS011;9420;50.876;7.012;2022-08-19T10:11:27;3.13;;;1.95;;
18580;SDS011;9420;50.876;7.012;2022-08-19T10:13:58;2.42;;;1.85;;
18580;SDS011;9420;50.876;7.012;2022-08-19T10:16:29;3.55;;;2.05;;
18580;SDS011;9420;50.876;7.012;2022-08-19T10:18:57;1.80;;;1.70;;
18580;SDS011;9420;50.876;7.012;2022-08-19T10:21:28;14.00;;;3.55;;
18580;SDS011;9420;50.876;7.012;2022-08-19T10:23:58;4.32;;;3.72;;
18580;SDS011;9420;50.876;7.012;2022-08-19T10:26:30;1.42;;;1.33;;
18580;SDS011;9420;50.876;7.012;2022-08-19T10:29:02;2.05;;;1.30;;
18580;SDS011;9420;50.876;7.012;2022-08-19T10:31:31;3.95;;;2.15;;
18580;SDS011;9420;50.876;7.012;2022-08-19T10:34:00;1.13;;;1.10;;
18580;SDS011;9420;50.876;7.012;2022-08-19T10:36:29;3.63;;;2.65;;
18580;SDS011;9420;50.876;7.012;2022-08-19T10:39:00;2.28;;;2.17;;
18580;SDS011;9420;50.876;7.012;2022-08-19T10:41:31;0.75;;;0.75;;
18580;SDS011;9420;50.876;7.012;2022-08-19T10:44:04;1.52;;;1.27;;
18580;SDS011;9420;50.876;7.012;2022-08-19T10:46:35;6.22;;;2.40;;
18580;SDS011;9420;50.876;7.012;2022-08-19T10:49:06;6.15;;;2.33;;
18580;SDS011;9420;50.876;7.012;2022-08-19T10:51:36;3.70;;;1.52;;
18580;SDS011;9420;50.876;7.012;2022-08-19T10:54:22;0.73;;;0.73;;
18580;SDS011;9420;50.876;7.012;2022-08-19T10:57:12;1.55;;;1.35;;
18580;SDS011;9420;50.876;7.012;2022-08-19T10:59:40;0.65;;;0.65;;
18580;SDS011;9420;50.876;7.012;2022-08-19T11:02:08;6.28;;;1.60;;
18580;SDS011;9420;50.876;7.012;2022-08-19T11:04:38;7.40;;;2.08;;
18580;SDS011;9420;50.876;7.012;2022-08-19T11:07:06;1.00;;;0.63;;
18580;SDS011;9420;50.876;7.012;2022-08-19T11:09:37;2.58;;;1.63;;
18580;SDS011;9420;50.876;7.012;2022-08-19T11:12:07;1.35;;;1.35;;
18580;SDS011;9420;50.876;7.012;2022-08-19T11:14:35;1.17;;;0.77;;
18580;SDS011;9420;50.876;7.012;2022-08-19T11:17:04;1.00;;;0.90;;
18580;SDS011;9420;50.876;7.012;2022-08-19T11:19:32;1.55;;;1.10;;
18580;SDS011;9420;50.876;7.012;2022-08-19T11:22:00;0.98;;;0.98;;
18580;SDS011;9420;50.876;7.012;2022-08-19T11:24:31;1.95;;;1.50;;
18580;SDS011;9420;50.876;7.012;2022-08-19T11:27:01;5.88;;;1.30;;
18580;SDS011;9420;50.876;7.012;2022-08-19T11:29:31;1.08;;;1.02;;
18580;SDS011;9420;50.876;7.012;2022-08-19T11:31:59;0.43;;;0.43;;
18580;SDS011;9420;50.876;7.012;2022-08-19T11:34:33;1.88;;;1.75;;
18580;SDS011;9420;50.876;7.012;2022-08-19T11:37:02;0.47;;;0.47;;
18580;SDS011;9420;50.876;7.012;2022-08-19T11:39:31;1.73;;;0.70;;
18580;SDS011;9420;50.876;7.012;2022-08-19T11:42:02;1.42;;;1.30;;
18580;SDS011;9420;50.876;7.012;2022-08-19T11:44:52;0.60;;;0.60;;
18580;SDS011;9420;50.876;7.012;2022-08-19T11:47:21;2.72;;;1.77;;
18580;SDS011;9420;50.876;7.012;2022-08-19T11:49:49;2.13;;;1.27;;
18580;SDS011;9420;50.876;7.012;2022-08-19T11:52:16;1.88;;;0.80;;
18580;SDS011;9420;50.876;7.012;2022-08-19T11:54:43;0.43;;;0.35;;
18580;SDS011;9420;50.876;7.012;2022-08-19T11:57:10;0.38;;;0.38;;
18580;SDS011;9420;50.876;7.012;2022-08-19T11:59:39;1.15;;;0.65;;
18580;SDS011;9420;50.876;7.012;2022-08-19T12:02:06;1.50;;;1.40;;
18580;SDS011;9420;50.876;7.012;2022-08-19T12:04:35;0.57;;;0.57;;
18580;SDS011;9420;50.876;7.012;2022-08-19T12:07:02;1.70;;;1.60;;
18580;SDS011;9420;50.876;7.012;2022-08-19T12:09:29;1.95;;;1.17;;
18580;SDS011;9420;50.876;7.012;2022-08-19T12:11:59;0.95;;;0.95;;
18580;SDS011;9420;50.876;7.012;2022-08-19T12:14:27;0.43;;;0.43;;
18580;SDS011;9420;50.876;7.012;2022-08-19T12:16:55;1.35;;;1.25;;
18580;SDS011;9420;50.876;7.012;2022-08-19T12:19:23;1.60;;;1.50;;
18580;SDS011;9420;50.876;7.012;2022-08-19T12:21:54;1.50;;;1.40;;
18580;SDS011;9420;50.876;7.012;2022-08-19T12:24:26;0.40;;;0.40;;
18580;SDS011;9420;50.876;7.012;2022-08-19T12:26:54;0.95;;;0.60;;
18580;SDS011;9420;50.876;7.012;2022-08-19T12:29:23;3.30;;;1.50;;
18580;SDS011;9420;50.876;7.012;2022-08-19T12:31:54;0.65;;;0.65;;
18580;SDS011;9420;50.876;7.012;2022-08-19T12:34:26;0.52;;;0.52;;
18580;SDS011;9420;50.876;7.012;2022-08-19T12:36:57;3.53;;;1.55;;
18580;SDS011;9420;50.876;7.012;2022-08-19T12:39:28;1.25;;;1.15;;
18580;SDS011;9420;50.876;7.012;2022-08-19T12:41:56;0.15;;;0.15;;
18580;SDS011;9420;50.876;7.012;2022-08-19T12:44:23;4.35;;;2.55;;
18580;SDS011;9420;50.876;7.012;2022-08-19T12:46:50;0.80;;;0.80;;
18580;SDS011;9420;50.876;7.012;2022-08-19T12:49:18;1.33;;;1.23;;
18580;SDS011;9420;50.876;7.012;2022-08-19T12:51:45;1.08;;;0.95;;
18580;SDS011;9420;50.876;7.012;2022-08-19T12:54:13;0.52;;;0.45;;
18580;SDS011;9420;50.876;7.012;2022-08-19T12:56:40;1.55;;;0.65;;
18580;SDS011;9420;50.876;7.012;2022-08-19T12:59:09;3.63;;;0.73;;
18580;SDS011;9420;50.876;7.012;2022-08-19T13:01:37;0.55;;;0.55;;
18580;SDS011;9420;50.876;7.012;2022-08-19T13:04:04;0.93;;;0.90;;
18580;SDS011;9420;50.876;7.012;2022-08-19T13:06:31;1.15;;;0.90;;
18580;SDS011;9420;50.876;7.012;2022-08-19T13:08:58;1.15;;;1.00;;
18580;SDS011;9420;50.876;7.012;2022-08-19T13:11:26;1.55;;;1.45;;
18580;SDS011;9420;50.876;7.012;2022-08-19T13:13:57;0.85;;;0.80;;
18580;SDS011;9420;50.876;7.012;2022-08-19T13:16:25;1.98;;;1.38;;
18580;SDS011;9420;50.876;7.012;2022-08-19T13:18:53;0.93;;;0.68;;
18580;SDS011;9420;50.876;7.012;2022-08-19T13:21:23;1.02;;;0.40;;
18580;SDS011;9420;50.876;7.012;2022-08-19T13:23:54;2.78;;;1.33;;
18580;SDS011;9420;50.876;7.012;2022-08-19T13:26:21;0.60;;;0.50;;
18580;SDS011;9420;50.876;7.012;2022-08-19T13:28:51;2.03;;;0.90;;
18580;SDS011;9420;50.876;7.012;2022-08-19T13:31:35;3.72;;;1.67;;
18580;SDS011;9420;50.876;7.012;2022-08-19T13:34:28;0.38;;;0.38;;
18580;SDS011;9420;50.876;7.012;2022-08-19T13:36:59;1.55;;;1.08;;
18580;SDS011;9420;50.876;7.012;2022-08-19T13:39:28;0.40;;;0.40;;
18580;SDS011;9420;50.876;7.012;2022-08-19T13:41:55;1.10;;;0.93;;
18580;SDS011;9420;50.876;7.012;2022-08-19T13:44:23;1.90;;;0.93;;
18580;SDS011;9420;50.876;7.012;2022-08-19T13:46:51;1.13;;;1.13;;
18580;SDS011;9420;50.876;7.012;2022-08-19T13:49:18;0.50;;;0.50;;
18580;SDS011;9420;50.876;7.012;2022-08-19T13:51:45;0.47;;;0.47;;
18580;SDS011;9420;50.876;7.012;2022-08-19T13:54:13;0.90;;;0.90;;
18580;SDS011;9420;50.876;7.012;2022-08-19T13:56:40;2.00;;;0.85;;
18580;SDS011;9420;50.876;7.012;2022-08-19T13:59:10;0.98;;;0.98;;
18580;SDS011;9420;50.876;7.012;2022-08-19T14:01:39;0.52;;;0.50;;
18580;SDS011;9420;50.876;7.012;2022-08-19T14:04:07;0.57;;;0.20;;
18580;SDS011;9420;50.876;7.012;2022-08-19T14:06:35;1.30;;;1.20;;
18580;SDS011;9420;50.876;7.012;2022-08-19T14:09:02;2.53;;;1.23;;
18580;SDS011;9420;50.876;7.012;2022-08-19T14:11:30;1.92;;;0.80;;
18580;SDS011;9420;50.876;7.012;2022-08-19T14:13:57;2.67;;;0.75;;
18580;SDS011;9420;50.876;7.012;2022-08-19T14:16:25;0.30;;;0.30;;
18580;SDS011;9420;50.876;7.012;2022-08-19T14:18:53;1.30;;;0.50;;
18580;SDS011;9420;50.876;7.012;2022-08-19T14:21:21;0.47;;;0.47;;
18580;SDS011;9420;50.876;7.012;2022-08-19T14:23:50;0.50;;;0.50;;
18580;SDS011;9420;50.876;7.012;2022-08-19T14:26:19;1.40;;;1.10;;
18580;SDS011;9420;50.876;7.012;2022-08-19T14:28:48;0.32;;;0.32;;
18580;SDS011;9420;50.876;7.012;2022-08-19T14:31:15;0.10;;;0.10;;
18580;SDS011;9420;50.876;7.012;2022-08-19T14:33:45;0.88;;;0.88;;
18580;SDS011;9420;50.876;7.012;2022-08-19T14:36:14;0.52;;;0.52;;
18580;SDS011;9420;50.876;7.012;2022-08-19T14:38:42;0.70;;;0.70;;
18580;SDS011;9420;50.876;7.012;2022-08-19T14:41:11;0.73;;;0.73;;
18580;SDS011;9420;50.876;7.012;2022-08-19T14:43:42;1.30;;;1.20;;
18580;SDS011;9420;50.876;7.012;2022-08-19T14:46:11;1.77;;;1.10;;
18580;SDS011;9420;50.876;7.012;2022-08-19T14:48:42;1.60;;;0.50;;
18580;SDS011;9420;50.876;7.012;2022-08-19T14:51:09;0.77;;;0.73;;
18580;SDS011;9420;50.876;7.012;2022-08-19T14:53:38;1.65;;;0.82;;
18580;SDS011;9420;50.876;7.012;2022-08-19T14:56:08;1.17;;;0.98;;
18580;SDS011;9420;50.876;7.012;2022-08-19T14:58:37;0.65;;;0.65;;
18580;SDS011;9420;50.876;7.012;2022-08-19T15:01:06;0.40;;;0.40;;
18580;SDS011;9420;50.876;7.012;2022-08-19T15:03:35;0.30;;;0.30;;
18580;SDS011;9420;50.876;7.012;2022-08-19T15:06:03;0.10;;;0.10;;
18580;SDS011;9420;50.876;7.012;2022-08-19T15:08:33;0.30;;;0.30;;
18580;SDS011;9420;50.876;7.012;2022-08-19T15:11:08;0.28;;;0.28;;
18580;SDS011;9420;50.876;7.012;2022-08-19T15:13:37;0.70;;;0.70;;
18580;SDS011;9420;50.876;7.012;2022-08-19T15:16:05;0.15;;;0.15;;
18580;SDS011;9420;50.876;7.012;2022-08-19T15:18:33;0.22;;;0.22;;